Time;durP1;ratioP1;P1;durP2;ratioP2;P2;SDS_P1;SDS_P2;PMS_P1;PMS_P2;Temp;Humidity;BMP_temperature;BMP_pressure;BME280_temperature;BME280_humidity;BME280_pressure;Samples;Min_cycle;Max_cycle;Signal;HPM_P1;HPM_P2
2021/04/21 00:02:20;;;;;;;15.00;13.40;;;8.40;99.90;;;;;;5069309;28;20673;-48
2021/04/21 00:04:47;;;;;;;16.67;14.13;;;8.40;99.90;;;;;;5075139;28;20650;-52
2021/04/21 00:07:18;;;;;;;15.60;13.93;;;8.40;99.90;;;;;;5073918;28;20222;-57
2021/04/21 00:09:46;;;;;;;16.77;14.37;;;8.30;99.90;;;;;;5075343;28;20174;-50
2021/04/21 00:12:13;;;;;;;14.17;12.67;;;8.20;99.90;;;;;;5074776;28;20166;-53
2021/04/21 00:14:39;;;;;;;14.07;12.47;;;8.10;99.90;;;;;;5074990;28;20228;-58
2021/04/21 00:17:06;;;;;;;13.37;11.97;;;8.00;99.90;;;;;;5075022;28;20190;-53
2021/04/21 00:19:35;;;;;;;13.57;12.17;;;8.00;99.90;;;;;;5075062;28;20183;-49
2021/04/21 00:22:03;;;;;;;13.23;11.83;;;7.90;99.90;;;;;;5074607;28;20225;-50
2021/04/21 00:24:33;;;;;;;12.87;11.57;;;7.80;99.90;;;;;;5075009;28;20178;-49
2021/04/21 00:26:59;;;;;;;12.43;11.13;;;7.80;99.90;;;;;;5074696;28;20277;-50
2021/04/21 00:29:27;;;;;;;12.90;11.60;;;7.80;99.90;;;;;;5075584;28;20197;-59
2021/04/21 00:31:55;;;;;;;12.43;11.13;;;7.80;99.90;;;;;;5074706;28;20592;-59
2021/04/21 00:34:22;;;;;;;13.20;11.80;;;7.80;99.90;;;;;;5074487;28;20182;-48
2021/04/21 00:36:51;;;;;;;12.47;11.10;;;7.80;99.90;;;;;;5074565;28;20662;-58
2021/04/21 00:39:19;;;;;;;12.87;11.47;;;7.80;99.90;;;;;;5074746;28;20233;-50
2021/04/21 00:42:27;;;;;;;12.43;10.77;;;7.90;99.90;;;;;;5074681;28;20588;-58
2021/04/21 00:45:03;;;;;;;12.67;11.47;;;7.90;99.90;;;;;;5074617;28;20553;-54
2021/04/21 00:48:00;;;;;;;13.77;12.37;;;7.90;99.90;;;;;;5074278;28;20652;-57
2021/04/21 00:50:34;;;;;;;14.20;12.70;;;8.00;99.90;;;;;;5074950;28;20206;-50
2021/04/21 00:53:07;;;;;;;14.53;13.03;;;7.90;99.90;;;;;;5074632;28;20178;-47
2021/04/21 00:55:39;;;;;;;13.83;12.43;;;7.80;99.90;;;;;;5074512;28;20527;-50
2021/04/21 00:58:23;;;;;;;13.97;12.57;;;7.80;99.90;;;;;;5071955;28;20182;-56
2021/04/21 01:00:50;;;;;;;20.83;13.47;;;7.80;99.90;;;;;;5062691;28;20186;-51
2021/04/21 01:03:23;;;;;;;15.03;13.37;;;7.80;99.90;;;;;;5053879;28;20215;-48
2021/04/21 01:06:24;;;;;;;16.60;13.40;;;7.80;99.90;;;;;;5052938;28;20194;-49
2021/04/21 01:08:55;;;;;;;15.27;13.67;;;7.80;99.90;;;;;;5032531;28;20627;-56
2021/04/21 01:11:28;;;;;;;15.83;14.13;;;7.70;99.90;;;;;;5054107;28;20321;-57
2021/04/21 01:14:04;;;;;;;17.40;14.90;;;7.70;99.90;;;;;;5052838;28;20174;-49
2021/04/21 01:16:32;;;;;;;17.47;14.90;;;7.70;99.90;;;;;;5053295;28;20195;-52
2021/04/21 01:19:04;;;;;;;15.90;13.80;;;7.70;99.90;;;;;;5054362;28;20178;-47
2021/04/21 01:21:37;;;;;;;15.33;13.73;;;7.80;99.90;;;;;;5052790;28;20167;-58
2021/04/21 01:24:22;;;;;;;14.83;13.23;;;7.60;99.90;;;;;;5053764;28;20210;-50
2021/04/21 01:26:53;;;;;;;13.80;12.37;;;7.50;99.90;;;;;;5054186;28;20206;-52
2021/04/21 01:29:42;;;;;;;14.37;12.87;;;7.50;99.90;;;;;;5053949;28;20175;-57
2021/04/21 01:32:20;;;;;;;15.17;13.00;;;7.40;99.90;;;;;;5053078;28;20195;-59
2021/04/21 01:34:48;;;;;;;17.03;14.27;;;7.40;99.90;;;;;;5054244;28;20619;-47
2021/04/21 01:37:18;;;;;;;17.27;14.87;;;7.40;99.90;;;;;;5054169;28;20562;-57
2021/04/21 01:39:49;;;;;;;17.20;15.23;;;7.40;99.90;;;;;;5053626;28;20281;-48
2021/04/21 01:42:17;;;;;;;16.73;14.93;;;7.40;99.90;;;;;;5036002;28;20209;-48
2021/04/21 01:44:45;;;;;;;18.90;15.20;;;7.40;99.90;;;;;;5053989;28;20639;-52
2021/04/21 01:47:16;;;;;;;18.03;15.73;;;7.40;99.90;;;;;;5053621;28;20198;-58
2021/04/21 01:49:47;;;;;;;17.40;15.00;;;7.40;99.90;;;;;;5054108;28;20179;-55
2021/04/21 01:52:45;;;;;;;15.67;13.97;;;7.50;99.90;;;;;;5053491;28;20182;-51
2021/04/21 01:55:19;;;;;;;16.13;14.43;;;7.50;99.90;;;;;;5053874;28;20612;-50
2021/04/21 01:57:52;;;;;;;14.93;13.40;;;7.40;99.90;;;;;;5053757;28;20198;-51
2021/04/21 02:00:40;;;;;;;17.47;14.57;;;7.40;99.90;;;;;;5054152;28;20182;-57
2021/04/21 02:03:36;;;;;;;16.20;14.03;;;7.40;99.90;;;;;;5053323;28;20277;-53
2021/04/21 02:06:45;;;;;;;13.93;12.33;;;7.20;99.90;;;;;;5053559;28;20195;-54
2021/04/21 02:09:48;;;;;;;14.90;13.07;;;7.20;99.90;;;;;;5053718;28;20167;-50
2021/04/21 02:12:38;;;;;;;14.07;12.57;;;7.10;99.90;;;;;;5053179;28;20171;-48
2021/04/21 02:15:28;;;;;;;14.97;13.33;;;7.10;99.90;;;;;;5053546;28;20233;-54
2021/04/21 02:18:16;;;;;;;16.63;13.80;;;7.00;99.90;;;;;;5053918;28;20183;-58
2021/04/21 02:20:47;;;;;;;13.00;11.70;;;7.00;99.90;;;;;;5054064;28;20179;-51
2021/04/21 02:23:54;;;;;;;12.00;10.80;;;6.80;99.90;;;;;;5053301;28;20195;-55
2021/04/21 02:26:55;;;;;;;11.50;10.30;;;6.80;99.90;;;;;;5052262;28;20203;-49
2021/04/21 02:29:28;;;;;;;11.93;10.23;;;6.70;99.90;;;;;;5057851;28;20261;-50
2021/04/21 02:32:06;;;;;;;11.97;10.63;;;6.70;99.90;;;;;;5056772;28;20171;-50
2021/04/21 02:34:51;;;;;;;12.53;11.23;;;6.70;99.90;;;;;;5057781;28;20171;-50
2021/04/21 02:37:34;;;;;;;14.47;12.60;;;6.70;99.90;;;;;;5057305;28;20191;-50
2021/04/21 02:40:21;;;;;;;14.60;11.67;;;6.80;99.90;;;;;;5057411;28;20226;-56
2021/04/21 02:42:57;;;;;;;13.80;10.80;;;6.80;99.90;;;;;;5056838;28;20262;-48
2021/04/21 02:45:49;;;;;;;13.53;11.83;;;6.60;99.90;;;;;;5056952;28;20190;-49
2021/04/21 02:48:43;;;;;;;15.87;12.93;;;6.50;99.90;;;;;;5056661;28;20171;-47
2021/04/21 02:51:16;;;;;;;14.87;12.50;;;6.60;99.90;;;;;;5056622;28;20175;-57
2021/04/21 02:54:23;;;;;;;12.70;11.27;;;6.50;99.90;;;;;;5057098;28;20163;-55
2021/04/21 02:57:02;;;;;;;12.93;11.43;;;6.60;99.90;;;;;;4956635;29;20656;-55
2021/04/21 02:59:44;;;;;;;10.97;9.87;;;6.50;99.90;;;;;;4956911;29;20178;-47
2021/04/21 03:02:19;;;;;;;10.37;9.27;;;6.50;99.90;;;;;;4956903;29;20206;-47
2021/04/21 03:05:10;;;;;;;11.80;10.53;;;6.50;99.90;;;;;;4957180;29;20178;-55
2021/04/21 03:07:46;;;;;;;11.63;10.43;;;6.50;99.90;;;;;;4956425;29;20202;-51
2021/04/21 03:10:15;;;;;;;12.57;10.87;;;6.40;99.90;;;;;;4956546;29;20206;-51
2021/04/21 03:12:49;;;;;;;11.90;10.33;;;6.40;99.90;;;;;;4956281;29;20214;-51
2021/04/21 03:15:19;;;;;;;12.80;10.77;;;6.30;99.90;;;;;;4955843;29;20257;-51
2021/04/21 03:17:46;;;;;;;11.90;9.90;;;6.30;99.90;;;;;;4955969;29;20198;-51
2021/04/21 03:20:15;;;;;;;12.10;10.60;;;6.30;99.90;;;;;;4955993;29;20221;-47
2021/04/21 03:22:45;;;;;;;10.40;9.30;;;6.30;99.90;;;;;;4955811;28;20217;-48
2021/04/21 03:25:20;;;;;;;10.10;9.10;;;6.10;99.90;;;;;;4956217;29;20187;-57
2021/04/21 03:27:51;;;;;;;9.70;8.70;;;5.90;99.90;;;;;;4955867;29;20208;-57
2021/04/21 03:30:19;;;;;;;9.10;8.20;;;5.90;99.90;;;;;;4990424;28;20516;-57
2021/04/21 03:32:52;;;;;;;8.73;7.93;;;6.00;99.90;;;;;;5056196;28;20500;-48
2021/04/21 03:35:19;;;;;;;10.43;9.37;;;6.00;99.90;;;;;;5054722;28;20696;-47
2021/04/21 03:38:02;;;;;;;14.00;12.03;;;6.00;99.90;;;;;;5056277;28;20178;-50
2021/04/21 03:40:28;;;;;;;13.40;10.83;;;6.00;99.90;;;;;;5056071;28;20167;-50
2021/04/21 03:42:55;;;;;;;14.13;11.63;;;6.00;99.90;;;;;;5056162;28;20539;-54
2021/04/21 03:45:21;;;;;;;13.57;10.20;;;6.00;99.90;;;;;;5055991;28;20278;-59
2021/04/21 03:47:48;;;;;;;12.07;10.43;;;6.00;99.90;;;;;;5055842;28;20257;-51
2021/04/21 03:50:16;;;;;;;11.37;10.17;;;6.00;99.90;;;;;;5055809;28;20178;-48
2021/04/21 03:52:45;;;;;;;12.53;10.20;;;5.90;99.90;;;;;;5055341;28;20262;-51
2021/04/21 03:55:12;;;;;;;11.73;10.53;;;5.90;99.90;;;;;;5055389;28;20631;-49
2021/04/21 03:57:43;;;;;;;11.27;10.10;;;5.90;99.90;;;;;;5055709;28;20218;-56
2021/04/21 04:00:15;;;;;;;10.63;9.53;;;5.90;99.90;;;;;;5055611;28;20188;-56
2021/04/21 04:02:47;;;;;;;15.80;14.17;;;5.90;99.90;;;;;;5038934;28;20251;-49
2021/04/21 04:05:14;;;;;;;12.23;10.93;;;5.80;99.90;;;;;;5055700;28;20167;-59
2021/04/21 04:07:43;;;;;;;12.67;11.37;;;5.80;99.90;;;;;;5055281;28;20170;-47
2021/04/21 04:10:18;;;;;;;11.13;9.90;;;5.80;99.90;;;;;;5054556;28;20251;-52
2021/04/21 04:12:46;;;;;;;9.73;8.63;;;5.80;99.90;;;;;;5064822;28;20178;-48
2021/04/21 04:15:14;;;;;;;9.23;8.23;;;5.70;99.90;;;;;;5057510;28;20520;-58
2021/04/21 04:17:45;;;;;;;9.87;8.13;;;5.70;99.90;;;;;;5053791;28;20206;-49
2021/04/21 04:20:15;;;;;;;13.17;11.87;;;5.70;99.90;;;;;;5054674;28;20262;-54
2021/04/21 04:22:51;;;;;;;10.77;9.67;;;5.60;99.90;;;;;;5053552;28;20219;-55
2021/04/21 04:25:19;;;;;;;12.03;10.80;;;5.50;99.90;;;;;;5055474;28;20213;-47
2021/04/21 04:27:45;;;;;;;9.07;8.17;;;5.40;99.90;;;;;;5054197;28;20194;-51
2021/04/21 04:30:12;;;;;;;7.83;7.07;;;5.50;99.90;;;;;;5054633;28;20543;-56
2021/04/21 04:32:42;;;;;;;9.27;8.37;;;5.50;99.90;;;;;;5054571;28;20183;-52
2021/04/21 04:35:10;;;;;;;9.40;7.83;;;5.60;99.90;;;;;;5055445;28;20186;-49
2021/04/21 04:37:39;;;;;;;9.00;7.87;;;5.60;99.90;;;;;;5055086;28;20198;-57
2021/04/21 04:40:07;;;;;;;9.27;8.00;;;5.60;99.90;;;;;;5059136;28;20198;-51
2021/04/21 04:42:33;;;;;;;8.73;7.83;;;5.60;99.90;;;;;;5089205;28;20205;-50
2021/04/21 04:45:02;;;;;;;12.33;9.07;;;5.70;99.90;;;;;;5078851;28;20550;-55
2021/04/21 04:47:45;;;;;;;16.57;11.77;;;5.90;99.90;;;;;;5068851;28;20632;-54
2021/04/21 04:50:15;;;;;;;12.23;9.20;;;5.90;99.90;;;;;;5066801;28;20641;-52
2021/04/21 04:52:44;;;;;;;8.60;7.67;;;6.00;99.90;;;;;;5065677;28;20179;-55
2021/04/21 04:55:13;;;;;;;9.17;7.30;;;6.00;99.90;;;;;;5069505;28;20710;-53
2021/04/21 04:57:41;;;;;;;8.60;7.80;;;6.10;99.90;;;;;;5077631;28;20684;-55
2021/04/21 05:00:09;;;;;;;8.13;7.33;;;6.10;99.90;;;;;;5067214;28;20183;-51
2021/04/21 05:02:39;;;;;;;9.67;8.43;;;6.20;99.90;;;;;;5067188;28;20248;-51
2021/04/21 05:05:07;;;;;;;11.90;9.63;;;6.20;99.90;;;;;;5071578;28;20246;-56
2021/04/21 05:07:49;;;;;;;13.40;10.83;;;6.20;99.90;;;;;;5071949;28;20190;-50
2021/04/21 05:10:26;;;;;;;17.30;12.37;;;6.20;99.90;;;;;;5079782;28;20177;-57
2021/04/21 05:12:57;;;;;;;7.60;6.90;;;6.30;99.90;;;;;;5084268;28;20185;-60
2021/04/21 05:15:34;;;;;;;7.73;6.93;;;6.30;99.90;;;;;;5089718;28;20174;-53
2021/04/21 05:18:00;;;;;;;7.80;7.07;;;6.30;99.90;;;;;;5075694;28;20196;-54
2021/04/21 05:20:56;;;;;;;8.37;7.57;;;6.30;99.90;;;;;;5080980;28;20171;-55
2021/04/21 05:23:46;;;;;;;17.17;7.43;;;6.50;99.90;;;;;;5054185;28;20681;-51
2021/04/21 05:26:34;;;;;;;9.50;7.87;;;6.50;99.90;;;;;;5064645;28;20213;-58
2021/04/21 05:29:32;;;;;;;14.97;11.13;;;6.50;99.90;;;;;;5036663;28;20658;-50
2021/04/21 05:32:06;;;;;;;13.93;11.03;;;6.60;99.90;;;;;;4992617;28;20181;-53
2021/04/21 05:35:14;;;;;;;12.87;10.60;;;6.70;99.90;;;;;;5054960;28;20220;-57
2021/04/21 05:38:07;;;;;;;9.13;8.23;;;6.80;99.90;;;;;;5064308;28;20237;-51
2021/04/21 05:41:06;;;;;;;8.20;7.40;;;6.70;99.90;;;;;;5059688;28;20182;-53
2021/04/21 05:44:09;;;;;;;8.67;7.67;;;6.70;99.90;;;;;;5067973;28;20198;-55
2021/04/21 05:46:54;;;;;;;10.43;8.03;;;6.80;99.90;;;;;;5072515;28;20194;-47
2021/04/21 05:50:02;;;;;;;8.70;7.80;;;6.80;99.90;;;;;;5053753;28;20574;-54
2021/04/21 05:53:07;;;;;;;7.40;6.67;;;6.70;99.90;;;;;;5061580;28;20174;-56
2021/04/21 05:55:55;;;;;;;8.87;7.97;;;6.70;99.90;;;;;;5072619;28;20190;-48
2021/04/21 05:58:42;;;;;;;8.73;7.67;;;6.60;99.90;;;;;;5055475;28;20617;-58
2021/04/21 06:01:19;;;;;;;8.60;7.70;;;6.60;99.90;;;;;;5065211;28;20182;-50
2021/04/21 06:03:50;;;;;;;8.50;7.63;;;6.60;99.90;;;;;;5066915;28;20256;-47
2021/04/21 06:06:16;;;;;;;8.30;7.50;;;6.60;99.90;;;;;;5056394;28;20689;-50
2021/04/21 06:08:42;;;;;;;11.73;8.33;;;6.70;99.90;;;;;;5066556;28;20259;-56
2021/04/21 06:11:29;;;;;;;9.47;8.57;;;6.80;99.90;;;;;;5076436;28;20167;-51
2021/04/21 06:13:57;;;;;;;8.93;7.90;;;6.80;99.90;;;;;;5077547;28;20174;-53
2021/04/21 06:16:24;;;;;;;9.27;8.37;;;7.10;99.90;;;;;;5071118;28;20607;-51
2021/04/21 06:18:53;;;;;;;9.00;8.10;;;7.20;99.90;;;;;;5057689;28;20182;-52
2021/04/21 06:21:20;;;;;;;28.90;9.90;;;7.40;99.90;;;;;;5055979;28;20178;-50
2021/04/21 06:23:46;;;;;;;8.83;7.93;;;7.40;99.90;;;;;;5057589;28;20211;-52
2021/04/21 06:26:19;;;;;;;10.33;9.23;;;7.50;99.90;;;;;;5056626;28;20203;-51
2021/04/21 06:28:56;;;;;;;11.03;9.90;;;7.60;99.90;;;;;;5057473;28;20175;-50
2021/04/21 06:31:33;;;;;;;11.03;9.03;;;7.80;99.90;;;;;;5057580;28;20170;-51
2021/04/21 06:33:59;;;;;;;10.67;9.57;;;8.00;99.90;;;;;;5056242;28;20635;-56
2021/04/21 06:36:32;;;;;;;14.67;10.30;;;8.10;99.90;;;;;;5056947;28;20199;-54
2021/04/21 06:38:58;;;;;;;10.57;9.17;;;8.30;99.90;;;;;;5056844;28;20195;-54
2021/04/21 06:41:24;;;;;;;10.40;9.30;;;8.40;99.90;;;;;;5057824;28;20178;-48
2021/04/21 06:43:50;;;;;;;15.63;10.63;;;8.30;99.90;;;;;;5057295;28;20203;-47
2021/04/21 06:46:19;;;;;;;11.10;10.00;;;8.00;99.90;;;;;;5057090;28;20225;-55
2021/04/21 06:48:51;;;;;;;12.03;10.77;;;8.00;99.90;;;;;;5057062;28;20183;-48
2021/04/21 06:51:18;;;;;;;11.83;10.70;;;7.90;99.90;;;;;;5056910;28;20228;-54
2021/04/21 06:53:45;;;;;;;16.80;12.67;;;8.00;99.90;;;;;;5056966;28;20175;-49
2021/04/21 06:56:11;;;;;;;12.80;11.50;;;8.10;99.90;;;;;;5056565;28;20231;-48
2021/04/21 06:58:39;;;;;;;14.30;12.27;;;8.20;99.90;;;;;;5056352;28;20175;-47
2021/04/21 07:01:09;;;;;;;15.17;13.57;;;8.50;99.90;;;;;;5056561;28;20182;-50
2021/04/21 07:03:35;;;;;;;28.63;14.93;;;8.40;99.90;;;;;;5056529;28;20221;-52
2021/04/21 07:06:00;;;;;;;15.23;13.47;;;8.50;99.90;;;;;;5056187;28;20282;-47
2021/04/21 07:08:32;;;;;;;14.43;12.97;;;8.70;99.90;;;;;;5038973;28;20284;-57
2021/04/21 07:10:59;;;;;;;14.67;13.07;;;8.80;99.90;;;;;;5053742;28;20542;-54
2021/04/21 07:13:30;;;;;;;14.53;12.70;;;9.00;99.90;;;;;;5054779;28;20211;-48
2021/04/21 07:15:59;;;;;;;21.93;15.53;;;9.20;99.90;;;;;;5056157;28;20199;-47
2021/04/21 07:18:42;;;;;;;16.63;14.93;;;9.20;99.90;;;;;;5054930;28;20229;-54
2021/04/21 07:21:08;;;;;;;18.37;16.17;;;9.30;99.90;;;;;;5055812;28;20217;-55
2021/04/21 07:23:38;;;;;;;18.13;15.47;;;9.40;99.90;;;;;;5059168;28;20615;-49
2021/04/21 07:26:05;;;;;;;40.13;17.23;;;9.50;99.90;;;;;;5072389;28;20198;-52
2021/04/21 07:28:31;;;;;;;16.67;14.77;;;9.50;99.90;;;;;;5075423;28;20182;-51
2021/04/21 07:31:11;;;;;;;18.03;16.13;;;9.60;99.90;;;;;;5074996;28;20506;-48
2021/04/21 07:33:38;;;;;;;28.13;18.37;;;9.60;99.90;;;;;;5076183;28;20198;-46
2021/04/21 07:36:14;;;;;;;24.03;20.33;;;9.80;99.90;;;;;;5074391;28;20195;-47
2021/04/21 07:38:51;;;;;;;21.43;16.50;;;9.80;99.90;;;;;;5075508;28;20261;-55
2021/04/21 07:41:36;;;;;;;18.93;16.83;;;9.90;99.90;;;;;;5075007;28;20618;-52
2021/04/21 07:44:04;;;;;;;44.53;17.83;;;10.00;99.90;;;;;;5074576;28;20657;-58
2021/04/21 07:46:30;;;;;;;26.13;18.93;;;10.00;99.90;;;;;;5075316;28;20225;-51
2021/04/21 07:48:55;;;;;;;28.33;18.73;;;10.00;99.90;;;;;;5075618;28;20174;-54
2021/04/21 07:51:21;;;;;;;18.40;15.43;;;10.00;99.90;;;;;;5075391;28;20573;-47
2021/04/21 07:53:48;;;;;;;20.03;17.07;;;10.10;99.90;;;;;;5075100;28;20175;-55
2021/04/21 07:56:14;;;;;;;17.77;15.97;;;10.40;99.90;;;;;;5075319;28;20537;-47
2021/04/21 07:58:40;;;;;;;19.63;17.40;;;10.90;99.90;;;;;;5075522;28;20614;-57
2021/04/21 08:01:06;;;;;;;20.17;18.07;;;11.20;99.90;;;;;;5074996;28;20210;-57
2021/04/21 08:03:33;;;;;;;18.20;16.33;;;11.50;99.90;;;;;;5075082;28;20271;-55
2021/04/21 08:05:59;;;;;;;17.43;15.60;;;11.70;99.90;;;;;;5075038;28;20194;-48
2021/04/21 08:08:35;;;;;;;19.87;16.03;;;11.90;99.90;;;;;;5075452;28;20227;-53
2021/04/21 08:11:03;;;;;;;19.77;16.73;;;12.10;99.90;;;;;;5075160;28;20261;-53
2021/04/21 08:13:42;;;;;;;17.40;15.70;;;12.40;99.90;;;;;;5074691;28;20182;-47
2021/04/21 08:16:30;;;;;;;17.27;15.47;;;12.80;99.90;;;;;;5074892;28;20277;-53
2021/04/21 08:18:56;;;;;;;17.90;16.10;;;12.70;99.90;;;;;;5056851;28;20526;-56
2021/04/21 08:21:41;;;;;;;16.27;14.67;;;12.60;99.90;;;;;;5074077;28;20170;-47
2021/04/21 08:24:15;;;;;;;16.93;15.13;;;12.40;99.90;;;;;;5074604;28;20198;-47
2021/04/21 08:26:43;;;;;;;19.03;17.03;;;12.40;99.90;;;;;;5074675;28;20189;-48
2021/04/21 08:29:11;;;;;;;16.57;14.87;;;12.40;99.90;;;;;;5075011;28;20253;-47
2021/04/21 08:31:38;;;;;;;18.70;16.80;;;12.30;99.90;;;;;;5074831;28;20181;-53
2021/04/21 08:34:04;;;;;;;18.67;16.73;;;12.20;99.90;;;;;;5074864;28;20174;-52
2021/04/21 08:36:30;;;;;;;18.87;16.93;;;12.20;99.90;;;;;;5074243;28;20274;-47
2021/04/21 08:38:55;;;;;;;17.97;16.07;;;12.20;99.90;;;;;;5056593;28;20269;-47
2021/04/21 08:41:22;;;;;;;17.80;15.90;;;12.20;99.90;;;;;;5074613;28;20167;-50
2021/04/21 08:43:50;;;;;;;18.43;16.53;;;12.40;99.90;;;;;;5074549;28;20520;-55
2021/04/21 08:46:17;;;;;;;19.10;17.10;;;12.40;99.90;;;;;;5074580;28;20646;-53
2021/04/21 08:48:44;;;;;;;19.67;17.67;;;12.60;99.90;;;;;;5074730;28;20170;-53
2021/04/21 08:51:20;;;;;;;20.50;18.03;;;12.80;99.90;;;;;;5074099;28;20235;-53
2021/04/21 08:53:56;;;;;;;20.03;17.83;;;12.70;99.90;;;;;;5074435;28;20254;-54
2021/04/21 08:56:22;;;;;;;21.43;19.27;;;12.60;99.90;;;;;;5074459;28;20199;-47
2021/04/21 08:58:49;;;;;;;21.37;19.17;;;12.60;99.90;;;;;;5074621;28;20303;-48
2021/04/21 09:01:16;;;;;;;21.13;18.93;;;12.70;99.90;;;;;;5074354;28;20689;-47
2021/04/21 09:03:44;;;;;;;21.67;19.40;;;12.80;99.90;;;;;;5073861;28;20214;-56
2021/04/21 09:06:10;;;;;;;21.83;19.53;;;13.00;99.90;;;;;;5074325;28;20203;-48
2021/04/21 09:08:38;;;;;;;21.53;19.23;;;13.10;99.90;;;;;;5074203;28;20607;-56
2021/04/21 09:11:04;;;;;;;20.13;18.03;;;13.20;99.90;;;;;;5056155;28;20184;-47
2021/04/21 09:13:29;;;;;;;20.23;18.17;;;13.30;99.90;;;;;;5074410;28;20175;-49
2021/04/21 09:15:57;;;;;;;21.07;18.87;;;13.50;99.90;;;;;;5074482;28;20216;-52
2021/04/21 09:18:40;;;;;;;20.77;18.10;;;13.50;99.90;;;;;;5074074;28;20225;-50
2021/04/21 09:21:16;;;;;;;20.90;18.73;;;13.60;99.90;;;;;;5074026;28;20205;-50
2021/04/21 09:23:42;;;;;;;19.37;17.33;;;13.60;99.90;;;;;;5073782;28;20226;-49
2021/04/21 09:26:23;;;;;;;19.93;17.93;;;13.80;99.90;;;;;;5073915;28;20194;-58
2021/04/21 09:28:51;;;;;;;19.57;17.53;;;13.90;99.90;;;;;;5073854;28;20189;-53
2021/04/21 09:31:20;;;;;;;18.90;16.90;;;14.20;99.90;;;;;;5073549;28;20163;-49
2021/04/21 09:33:47;;;;;;;19.00;17.10;;;14.30;99.90;;;;;;5074897;28;20177;-51
2021/04/21 09:36:31;;;;;;;19.53;17.50;;;14.50;99.90;;;;;;5077649;28;20201;-50
2021/04/21 09:39:07;;;;;;;19.47;17.47;;;14.70;99.90;;;;;;5077663;28;20201;-57
2021/04/21 09:41:33;;;;;;;17.97;16.17;;;14.90;99.90;;;;;;5077615;28;20178;-49
2021/04/21 09:44:14;;;;;;;18.67;16.77;;;14.90;99.90;;;;;;5078037;28;20202;-57
2021/04/21 09:46:41;;;;;;;20.03;17.73;;;14.80;99.90;;;;;;5078122;28;20213;-55
2021/04/21 09:49:39;;;;;;;18.33;16.43;;;14.90;99.90;;;;;;5077647;28;20170;-48
2021/04/21 09:52:11;;;;;;;18.90;16.77;;;14.90;99.90;;;;;;5077543;28;20174;-47
2021/04/21 09:54:38;;;;;;;17.27;15.37;;;14.90;99.90;;;;;;5077797;28;20167;-48
2021/04/21 09:57:14;;;;;;;17.93;16.03;;;15.00;99.90;;;;;;5077885;28;20278;-57
2021/04/21 09:59:41;;;;;;;18.80;16.80;;;15.20;99.90;;;;;;5077215;28;20186;-53
2021/04/21 10:02:29;;;;;;;18.87;16.97;;;15.10;99.90;;;;;;5059060;28;20170;-47
2021/04/21 10:04:55;;;;;;;18.63;16.63;;;15.40;99.90;;;;;;5064902;28;20662;-56
2021/04/21 10:07:21;;;;;;;18.13;16.33;;;15.60;99.90;;;;;;5057085;28;20195;-57
2021/04/21 10:09:57;;;;;;;18.73;16.87;;;15.70;99.90;;;;;;5058578;28;20181;-49
2021/04/21 10:12:32;;;;;;;19.07;17.17;;;15.90;99.90;;;;;;5073926;28;20186;-55
2021/04/21 10:15:11;;;;;;;18.37;15.87;;;16.30;99.90;;;;;;5073313;28;20194;-49
2021/04/21 10:17:45;;;;;;;18.90;16.90;;;16.50;99.90;;;;;;5075458;28;20222;-56
2021/04/21 10:20:16;;;;;;;20.53;18.43;;;16.70;99.90;;;;;;5073546;28;20192;-52
2021/04/21 10:22:43;;;;;;;20.93;18.87;;;16.70;99.90;;;;;;5064646;28;20679;-52
2021/04/21 10:25:11;;;;;;;19.70;17.77;;;16.70;99.90;;;;;;5076753;28;20171;-60
2021/04/21 10:27:37;;;;;;;18.97;17.07;;;16.70;99.90;;;;;;5075496;28;20209;-48
2021/04/21 10:30:05;;;;;;;19.93;17.93;;;16.90;99.90;;;;;;5076115;28;20180;-58
2021/04/21 10:32:35;;;;;;;20.60;17.53;;;17.00;99.90;;;;;;5076619;28;20189;-49
2021/04/21 10:35:01;;;;;;;19.90;17.73;;;17.10;99.90;;;;;;5070481;28;20285;-49
2021/04/21 10:37:27;;;;;;;19.93;17.93;;;16.80;99.90;;;;;;5068414;28;20296;-48
2021/04/21 10:39:55;;;;;;;19.90;17.97;;;16.90;99.90;;;;;;5075098;28;20193;-49
2021/04/21 10:42:22;;;;;;;18.83;16.97;;;16.90;99.90;;;;;;5076217;28;20212;-55
2021/04/21 10:44:50;;;;;;;19.40;17.43;;;16.90;99.90;;;;;;5067054;28;20183;-48
2021/04/21 10:47:16;;;;;;;20.47;18.30;;;17.00;99.90;;;;;;5055822;28;20210;-54
2021/04/21 10:49:54;;;;;;;19.07;17.07;;;17.00;99.90;;;;;;5067775;28;20259;-51
2021/04/21 10:52:25;;;;;;;19.03;16.83;;;17.20;99.90;;;;;;5076660;28;20180;-53
2021/04/21 10:55:14;;;;;;;18.47;16.57;;;17.20;99.90;;;;;;5075815;28;20206;-47
2021/04/21 10:57:41;;;;;;;19.30;17.30;;;17.20;99.90;;;;;;5074767;28;20198;-47
2021/04/21 11:00:24;;;;;;;17.90;16.13;;;17.30;99.90;;;;;;5076582;28;20186;-52
2021/04/21 11:03:00;;;;;;;17.83;16.17;;;17.70;99.90;;;;;;5076049;28;20217;-47
2021/04/21 11:05:36;;;;;;;17.33;15.63;;;17.70;99.90;;;;;;5076201;28;20163;-47
2021/04/21 11:08:20;;;;;;;15.97;14.40;;;17.80;99.90;;;;;;5076263;28;20174;-57
2021/04/21 11:11:03;;;;;;;17.67;15.90;;;18.00;99.90;;;;;;5075837;28;20504;-47
2021/04/21 11:13:36;;;;;;;19.37;17.33;;;18.10;99.90;;;;;;5076233;28;20228;-47
2021/04/21 11:16:05;;;;;;;19.60;17.70;;;17.90;99.90;;;;;;5075979;28;20183;-52
2021/04/21 11:18:32;;;;;;;19.17;17.17;;;17.50;99.90;;;;;;5070235;28;20643;-50
2021/04/21 11:20:59;;;;;;;19.47;17.57;;;17.70;99.90;;;;;;5055839;28;20217;-57
2021/04/21 11:23:55;;;;;;;19.27;17.37;;;17.90;99.90;;;;;;5064378;28;20208;-50
2021/04/21 11:26:26;;;;;;;18.27;16.57;;;17.90;99.90;;;;;;5076383;28;20195;-49
2021/04/21 11:29:00;;;;;;;16.37;14.77;;;17.80;99.90;;;;;;5075964;28;20190;-48
2021/04/21 11:31:41;;;;;;;17.53;15.73;;;17.90;99.90;;;;;;5075825;28;20545;-51
2021/04/21 11:34:26;;;;;;;17.73;15.97;;;17.70;99.90;;;;;;5075774;28;20178;-49
2021/04/21 11:36:56;;;;;;;16.50;14.77;;;17.50;99.90;;;;;;5076131;28;20281;-57
2021/04/21 11:39:40;;;;;;;17.33;15.63;;;17.50;99.90;;;;;;5075450;28;20187;-50
2021/04/21 11:42:29;;;;;;;16.97;15.27;;;17.90;99.90;;;;;;5075529;28;20175;-55
2021/04/21 11:45:11;;;;;;;16.53;14.83;;;18.00;99.90;;;;;;5075453;28;20186;-49
2021/04/21 11:47:45;;;;;;;17.07;15.23;;;17.80;99.90;;;;;;5075209;28;20519;-52
2021/04/21 11:50:17;;;;;;;15.90;14.37;;;17.70;99.90;;;;;;5075829;28;20174;-48
2021/04/21 11:52:43;;;;;;;15.43;13.93;;;17.50;99.90;;;;;;5075530;28;20205;-49
2021/04/21 11:55:19;;;;;;;15.20;13.80;;;17.80;99.90;;;;;;5075560;28;20193;-53
2021/04/21 11:57:56;;;;;;;14.77;13.27;;;18.10;99.90;;;;;;5074728;28;20255;-53
2021/04/21 12:00:28;;;;;;;14.33;12.90;;;18.40;99.90;;;;;;5075121;28;20181;-58
2021/04/21 12:02:54;;;;;;;15.80;14.20;;;18.70;99.90;;;;;;5074691;28;20203;-50
2021/04/21 12:05:36;;;;;;;15.87;14.27;;;18.60;99.90;;;;;;5075304;28;20178;-49
2021/04/21 12:08:04;;;;;;;16.33;14.67;;;18.20;99.90;;;;;;5074938;28;20166;-54
2021/04/21 12:10:33;;;;;;;15.47;13.97;;;17.90;99.90;;;;;;5075327;28;20511;-50
2021/04/21 12:13:21;;;;;;;15.97;14.47;;;17.60;99.90;;;;;;5074375;28;20175;-56
2021/04/21 12:15:51;;;;;;;15.33;13.83;;;18.00;99.90;;;;;;5074399;28;20550;-58
2021/04/21 12:18:35;;;;;;;14.60;13.20;;;18.30;99.90;;;;;;5075342;28;20515;-49
2021/04/21 12:21:26;;;;;;;15.53;14.03;;;18.90;99.90;;;;;;5074860;28;20177;-57
2021/04/21 12:24:03;;;;;;;14.20;12.80;;;19.50;99.70;;;;;;5061548;28;20542;-48
2021/04/21 12:26:36;;;;;;;14.20;12.77;;;19.50;98.60;;;;;;5071089;28;20206;-48
2021/04/21 12:29:12;;;;;;;12.60;11.40;;;19.60;99.20;;;;;;5054945;28;20185;-54
2021/04/21 12:31:38;;;;;;;13.80;12.50;;;19.70;99.00;;;;;;5061545;28;20182;-58
2021/04/21 12:34:06;;;;;;;12.88;11.60;;;19.90;98.70;;;;;;5074662;28;20174;-51
2021/04/21 12:36:37;;;;;;;12.05;10.95;;;20.30;99.00;;;;;;5074393;28;20226;-48
2021/04/21 12:39:10;;;;;;;10.82;9.82;;;20.20;97.90;;;;;;5074362;28;20186;-53
2021/04/21 12:41:37;;;;;;;13.50;12.10;;;20.40;97.50;;;;;;5074184;28;20183;-49
2021/04/21 12:44:16;;;;;;;13.48;12.07;;;20.10;96.30;;;;;;5072444;28;20206;-51
2021/04/21 12:46:43;;;;;;;12.20;10.68;;;20.20;97.90;;;;;;5074067;28;20260;-48
2021/04/21 12:49:09;;;;;;;11.77;10.57;;;21.50;96.70;;;;;;5073109;28;20289;-58
2021/04/21 12:51:43;;;;;;;12.48;11.30;;;22.50;94.20;;;;;;5073904;28;20202;-55
2021/04/21 12:54:29;;;;;;;13.68;12.18;;;22.80;93.10;;;;;;5074012;28;20186;-49
2021/04/21 12:56:55;;;;;;;12.23;11.07;;;21.90;93.70;;;;;;5073979;28;20546;-48
2021/04/21 12:59:20;;;;;;;12.80;11.48;;;20.80;93.10;;;;;;5073948;28;20171;-49
2021/04/21 13:01:46;;;;;;;12.93;11.73;;;19.70;94.10;;;;;;5073791;28;20592;-56
2021/04/21 13:04:14;;;;;;;14.13;12.70;;;19.40;94.10;;;;;;5073860;28;20194;-51
2021/04/21 13:06:49;;;;;;;13.97;12.47;;;19.00;94.80;;;;;;5074165;28;20203;-48
2021/04/21 13:09:20;;;;;;;13.07;11.87;;;18.80;95.50;;;;;;5073839;28;20174;-50
2021/04/21 13:11:57;;;;;;;14.03;12.63;;;18.70;97.90;;;;;;5073666;28;20194;-53